TAF Text Data
IDs:
Format:
Raw Decoded Include METAR

Data at: 1732 UTC 23 Jan 2019

KEWN 231720Z 2318/2418 17011G18KT P6SM SCT040 BKN070
  FM240400 18012G20KT P6SM BKN040 WS020/18040KT
  FM241200 19017G27KT 4SM SHRA SCT015 OVC030 WS020/20055KT
  FM241700 23015G25KT 6SM SHRA OVC020